首页
METAR-TAF:

METAR-TAF

机场 :

弗洛雷讷, 比利时

纬度: 50-14N, 经度: 004-39E, 海拔: 279米

当前天气观测

该预报发布于35分钟前的06:25 UTC
风速5节,风向东转东北
温度 -2°C
湿度 100%
气压 1010 hPa
能見度: 6000

METAR: EBFS 170625Z AUTO 06005KT 6000 SCT220/// M02/M02 Q1010 WHT

时间: 08:00 (07:00 UTC)

预报

该预报发布于1小时和19分钟前的05:41 UTC
预报有效从17日的 07点(UTC)到 17日的 16点(UTC)
风速5节,风向东北
能見度: 4000
散云层高于22000英尺
轻雾
几率 30% :
短暂存在
从 17日的 07点(UTC)到 17日的 09点(UTC)
风速2节,风向多变
能見度: 3000
轻雾
成为
从 17日的 08点(UTC)到 17日的 10点(UTC)
能见度10公里或以上
少量云层高于18000英尺
多云层高于22000英尺
成为
从 17日的 12点(UTC)到 17日的 14点(UTC)
风速10节,风向北转东北
多云层高于15000英尺
多云层高于22000英尺

TAF: EBFS 170541Z 1707/1716 04005KT 4000 BR SCT220 PROB30 TEMPO 1707/1709 VRB02KT 3000 BR BECMG 1708/1710 9999 FEW180 BKN220 BECMG 1712/1714 02010KT BKN150 BKN220

超过4000个机场的气象观测和天气预报(METAR&TAF报告)。

可查询的气象台以黄色和红色小点在地图上表示。

将鼠标移到小点上方,可查看气象台名称。

然后点击查看天气观测和预报。

如需切换地图:点击带黑十字的绿色按钮放大地图;点击带横线的绿色按钮缩小地图;或者点击绿色箭头查看邻近地区的地图。


METAR-TAF: